createdAt,value
2022-10-31T00:01:11.263Z,7.00
2022-10-31T00:03:37.830Z,6.77
2022-10-31T00:06:04.395Z,6.07
2022-10-31T00:08:30.992Z,6.33
2022-10-31T00:10:57.564Z,6.33
2022-10-31T00:13:24.138Z,6.30
2022-10-31T00:15:50.718Z,6.83
2022-10-31T00:18:17.280Z,6.27
2022-10-31T00:20:43.818Z,6.33
2022-10-31T00:23:11.392Z,5.30
2022-10-31T00:25:40.120Z,6.17
2022-10-31T00:28:08.469Z,6.63
2022-10-31T00:30:35.239Z,5.93
2022-10-31T00:33:03.995Z,6.03
2022-10-31T00:35:30.520Z,6.40
2022-10-31T00:37:57.091Z,6.27
2022-10-31T00:40:23.632Z,5.47
2022-10-31T00:42:50.175Z,6.33
2022-10-31T00:45:16.867Z,5.87
2022-10-31T00:47:43.542Z,6.93
2022-10-31T00:50:10.172Z,5.27
2022-10-31T00:52:36.710Z,6.13
2022-10-31T00:55:03.486Z,6.30
2022-10-31T00:57:30.004Z,6.63
2022-10-31T00:59:56.529Z,6.30
2022-10-31T01:02:23.221Z,6.40
2022-10-31T01:04:49.838Z,6.17
2022-10-31T01:07:16.484Z,6.70
2022-10-31T01:09:43.011Z,5.47
2022-10-31T01:12:09.602Z,6.07
2022-10-31T01:14:36.156Z,5.93
2022-10-31T01:17:02.705Z,6.40
2022-10-31T01:19:29.249Z,5.83
2022-10-31T01:21:56.480Z,6.00
2022-10-31T01:24:23.269Z,6.33
2022-10-31T01:26:49.893Z,5.87
2022-10-31T01:29:16.493Z,6.23
2022-10-31T01:31:43.054Z,5.60
2022-10-31T01:34:14.502Z,5.80
2022-10-31T01:36:42.175Z,6.10
2022-10-31T01:39:12.305Z,5.50
2022-10-31T01:41:44.650Z,6.30
2022-10-31T01:44:17.099Z,5.67
2022-10-31T01:46:49.600Z,6.13
2022-10-31T01:49:30.219Z,5.60
2022-10-31T01:52:17.738Z,5.50
2022-10-31T01:54:49.463Z,5.67
2022-10-31T01:57:16.568Z,5.13
2022-10-31T01:59:48.477Z,5.70
2022-10-31T02:02:17.603Z,5.67
2022-10-31T02:04:45.151Z,6.27
2022-10-31T02:07:26.233Z,5.77
2022-10-31T02:09:54.625Z,4.70
2022-10-31T02:12:21.715Z,5.50
2022-10-31T02:14:48.328Z,5.50
2022-10-31T02:17:15.505Z,5.13
2022-10-31T02:20:15.419Z,4.90
2022-10-31T02:22:47.761Z,5.90
2022-10-31T02:25:35.379Z,6.00
2022-10-31T02:28:25.688Z,5.90
2022-10-31T02:31:13.542Z,5.77
2022-10-31T02:33:50.346Z,5.20
2022-10-31T02:36:40.219Z,5.27
2022-10-31T02:39:55.263Z,5.10
2022-10-31T02:42:39.297Z,5.40
2022-10-31T02:45:14.424Z,4.63
2022-10-31T02:47:42.715Z,5.37
2022-10-31T02:50:17.039Z,5.57
2022-10-31T02:52:43.590Z,5.40
2022-10-31T02:55:35.956Z,5.07
2022-10-31T02:58:07.931Z,4.40
2022-10-31T03:00:44.780Z,4.80
2022-10-31T03:03:18.018Z,4.80
2022-10-31T03:06:08.128Z,5.00
2022-10-31T03:09:04.331Z,4.90
2022-10-31T03:11:39.208Z,4.93
2022-10-31T03:14:10.359Z,5.53
2022-10-31T03:16:48.386Z,4.87
2022-10-31T03:19:33.811Z,5.10
2022-10-31T03:22:06.135Z,4.90
2022-10-31T03:24:36.992Z,5.13
2022-10-31T03:27:06.244Z,4.77
2022-10-31T03:29:36.916Z,4.80
2022-10-31T03:32:11.733Z,4.63
2022-10-31T03:34:43.527Z,5.13
2022-10-31T03:37:14.875Z,5.17
2022-10-31T03:39:44.163Z,4.90
2022-10-31T03:42:14.985Z,5.07
2022-10-31T03:44:46.792Z,4.80
2022-10-31T03:47:13.877Z,4.70
2022-10-31T03:49:40.510Z,5.00
2022-10-31T03:52:17.423Z,5.53
2022-10-31T03:54:46.805Z,4.23
2022-10-31T03:57:20.232Z,5.17
2022-10-31T04:00:16.586Z,5.07
2022-10-31T04:02:51.794Z,5.30
2022-10-31T04:05:19.967Z,4.83
2022-10-31T04:07:48.374Z,4.77
2022-10-31T04:10:16.727Z,4.40
2022-10-31T04:12:49.514Z,4.67
2022-10-31T04:15:16.460Z,4.77
2022-10-31T04:17:46.353Z,4.30
2022-10-31T04:20:17.051Z,4.97
2022-10-31T04:22:43.777Z,4.80
2022-10-31T04:25:10.423Z,4.70
2022-10-31T04:27:36.968Z,4.50
2022-10-31T04:30:03.741Z,4.43
2022-10-31T04:32:30.280Z,4.70
2022-10-31T04:34:56.792Z,4.30
2022-10-31T04:37:23.349Z,4.43
2022-10-31T04:39:49.859Z,4.50
2022-10-31T04:42:16.387Z,4.40
2022-10-31T04:44:42.920Z,4.77
2022-10-31T04:47:09.471Z,4.73
2022-10-31T04:49:36.009Z,3.90
2022-10-31T04:52:02.542Z,4.53
2022-10-31T04:54:29.061Z,4.50
2022-10-31T04:56:55.595Z,4.47
2022-10-31T04:59:22.201Z,4.17
2022-10-31T05:01:48.787Z,4.40
2022-10-31T05:04:15.500Z,4.00
2022-10-31T05:06:42.011Z,4.97
2022-10-31T05:09:08.639Z,4.37
2022-10-31T05:11:35.181Z,4.30
2022-10-31T05:14:01.761Z,4.73
2022-10-31T05:16:29.134Z,3.90
2022-10-31T05:18:55.673Z,4.23
2022-10-31T05:21:22.280Z,4.67
2022-10-31T05:23:48.899Z,5.70
2022-10-31T05:26:15.475Z,5.37
2022-10-31T05:28:41.996Z,6.13
2022-10-31T05:31:08.528Z,5.47
2022-10-31T05:33:35.066Z,6.07
2022-10-31T05:36:01.735Z,5.97
2022-10-31T05:38:28.367Z,5.47
2022-10-31T05:41:03.720Z,5.47
2022-10-31T05:43:30.336Z,5.90
2022-10-31T05:45:57.425Z,6.30
2022-10-31T05:48:24.221Z,6.07
2022-10-31T05:50:50.871Z,6.77
2022-10-31T05:53:17.550Z,6.60
2022-10-31T05:55:44.509Z,6.20
2022-10-31T05:58:11.829Z,6.03
2022-10-31T06:00:39.463Z,6.43
2022-10-31T06:05:36.016Z,6.23
2022-10-31T06:08:03.015Z,5.90
2022-10-31T06:10:30.295Z,6.43
2022-10-31T06:12:57.438Z,6.00
2022-10-31T06:15:24.850Z,5.87
2022-10-31T06:18:06.221Z,5.90
2022-10-31T06:20:33.876Z,5.70
2022-10-31T06:23:01.059Z,4.87
2022-10-31T06:25:28.298Z,4.50
2022-10-31T06:27:55.497Z,4.17
2022-10-31T06:30:22.316Z,4.33
2022-10-31T06:32:50.304Z,4.20
2022-10-31T06:35:16.912Z,4.27
2022-10-31T06:37:45.585Z,5.73
2022-10-31T06:40:14.767Z,3.47
2022-10-31T06:42:41.282Z,3.93
2022-10-31T06:45:08.160Z,4.27
2022-10-31T06:47:38.055Z,5.40
2022-10-31T06:50:12.392Z,6.50
2022-10-31T06:52:38.929Z,6.93
2022-10-31T06:55:05.847Z,6.00
2022-10-31T06:57:32.360Z,6.27
2022-10-31T06:59:58.929Z,5.17
2022-10-31T07:02:25.944Z,4.63
2022-10-31T07:04:52.522Z,4.43
2022-10-31T07:07:22.021Z,4.63
2022-10-31T07:09:48.559Z,7.23
2022-10-31T07:12:16.620Z,6.60
2022-10-31T07:14:43.152Z,7.00
2022-10-31T07:17:10.124Z,6.60
2022-10-31T07:19:36.650Z,6.60
2022-10-31T07:22:03.192Z,6.20
2022-10-31T07:24:31.269Z,5.47
2022-10-31T07:26:57.797Z,6.07
2022-10-31T07:29:24.321Z,5.33
2022-10-31T07:31:50.935Z,5.20
2022-10-31T07:34:17.471Z,5.50
2022-10-31T07:36:44.013Z,4.93
2022-10-31T07:39:10.579Z,5.70
2022-10-31T07:41:37.526Z,5.50
2022-10-31T07:44:04.217Z,5.13
2022-10-31T07:46:31.223Z,5.03
2022-10-31T07:48:57.756Z,5.00
2022-10-31T07:51:24.953Z,4.60
2022-10-31T07:53:52.565Z,5.67
2022-10-31T07:56:19.104Z,5.90
2022-10-31T07:58:46.036Z,5.67
2022-10-31T08:03:44.027Z,4.73
2022-10-31T08:06:10.988Z,5.63
2022-10-31T08:08:38.508Z,5.90
2022-10-31T08:11:05.627Z,5.83
2022-10-31T08:13:32.225Z,6.13
2022-10-31T08:16:04.358Z,5.50
2022-10-31T08:18:31.111Z,5.97
2022-10-31T08:20:57.632Z,5.67
2022-10-31T08:23:24.158Z,5.47
2022-10-31T08:25:50.667Z,6.27
2022-10-31T08:28:17.272Z,5.23
2022-10-31T08:30:43.908Z,5.33
2022-10-31T08:33:13.036Z,5.57
2022-10-31T08:35:40.195Z,5.77
2022-10-31T08:38:08.558Z,5.20
2022-10-31T08:40:36.455Z,5.40
2022-10-31T08:43:05.402Z,8.60
2022-10-31T08:45:33.282Z,7.53
2022-10-31T08:48:01.972Z,5.70
2022-10-31T08:50:30.210Z,5.27
2022-10-31T08:53:05.627Z,5.80
2022-10-31T08:55:37.142Z,5.40
2022-10-31T08:58:05.889Z,6.17
2022-10-31T09:00:33.410Z,7.37
2022-10-31T09:03:03.287Z,5.17
2022-10-31T09:05:30.413Z,5.67
2022-10-31T09:07:58.707Z,6.30
2022-10-31T09:10:26.636Z,4.77
2022-10-31T09:13:01.160Z,5.03
2022-10-31T09:15:29.079Z,4.90
2022-10-31T09:17:55.669Z,4.93
2022-10-31T09:20:22.439Z,4.90
2022-10-31T09:22:49.042Z,5.27
2022-10-31T09:25:15.653Z,5.07
2022-10-31T09:27:42.229Z,5.00
2022-10-31T09:30:11.600Z,4.60
2022-10-31T09:32:38.205Z,9.10
2022-10-31T09:35:04.993Z,9.03
2022-10-31T09:37:31.583Z,8.23
2022-10-31T09:39:58.625Z,7.40
2022-10-31T09:42:39.886Z,5.40
2022-10-31T09:45:33.221Z,5.93
2022-10-31T09:48:11.973Z,4.93
2022-10-31T09:51:11.580Z,5.30
2022-10-31T09:53:45.068Z,5.43
2022-10-31T09:56:18.893Z,5.47
2022-10-31T09:58:56.622Z,5.37
2022-10-31T10:01:41.978Z,4.80
2022-10-31T10:04:28.980Z,5.23
2022-10-31T10:06:56.393Z,7.00
2022-10-31T10:09:27.319Z,6.50
2022-10-31T10:12:15.893Z,7.70
2022-10-31T10:15:00.613Z,7.03
2022-10-31T10:17:47.228Z,7.33
2022-10-31T10:20:52.189Z,7.63
2022-10-31T10:23:39.212Z,7.70
2022-10-31T10:26:18.616Z,7.73
2022-10-31T10:28:50.335Z,7.20
2022-10-31T10:31:22.607Z,13.73
2022-10-31T10:33:59.490Z,14.27
2022-10-31T10:36:42.277Z,13.27
2022-10-31T10:39:24.926Z,15.50
2022-10-31T10:42:10.776Z,15.53
2022-10-31T10:45:03.200Z,12.83
2022-10-31T10:47:43.317Z,12.83
2022-10-31T10:50:24.017Z,13.57
2022-10-31T10:53:02.610Z,15.07
2022-10-31T10:55:40.137Z,14.03
2022-10-31T10:58:11.137Z,14.17
2022-10-31T11:00:44.064Z,13.43
2022-10-31T11:03:11.675Z,13.77
2022-10-31T11:05:53.757Z,14.40
2022-10-31T11:08:31.597Z,14.83
2022-10-31T11:11:19.925Z,15.03
2022-10-31T11:13:49.747Z,14.63
2022-10-31T11:16:28.244Z,13.53
2022-10-31T11:18:55.537Z,14.33
2022-10-31T11:21:26.432Z,14.27
2022-10-31T11:24:03.903Z,14.80
2022-10-31T11:26:30.495Z,14.20
2022-10-31T11:28:59.524Z,14.20
2022-10-31T11:31:27.930Z,14.23
2022-10-31T11:34:03.218Z,14.10
2022-10-31T11:36:36.565Z,13.83
2022-10-31T11:39:05.853Z,15.53
2022-10-31T11:41:37.340Z,13.83
2022-10-31T11:44:14.361Z,14.00
2022-10-31T11:46:46.924Z,14.10
2022-10-31T11:49:37.106Z,13.90
2022-10-31T11:52:08.720Z,12.87
2022-10-31T11:54:47.546Z,13.77
2022-10-31T11:57:33.074Z,13.27
2022-10-31T12:00:05.078Z,12.80
2022-10-31T12:02:31.982Z,13.57
2022-10-31T12:05:12.482Z,12.40
2022-10-31T12:07:39.114Z,11.97
2022-10-31T12:10:12.716Z,11.50
2022-10-31T12:13:06.733Z,11.60
2022-10-31T12:15:34.674Z,12.07
2022-10-31T12:18:28.318Z,13.00
2022-10-31T12:21:20.791Z,11.67
2022-10-31T12:24:17.141Z,12.00
2022-10-31T12:27:18.131Z,11.30
2022-10-31T12:30:11.312Z,11.47
2022-10-31T12:33:01.410Z,13.30
2022-10-31T12:35:56.488Z,12.67
2022-10-31T12:38:58.493Z,12.60
2022-10-31T12:41:40.918Z,13.70
2022-10-31T12:44:13.560Z,12.50
2022-10-31T12:47:00.645Z,13.13
2022-10-31T12:49:49.460Z,12.23
2022-10-31T12:52:58.564Z,12.47
2022-10-31T12:56:03.891Z,14.10
2022-10-31T12:58:37.795Z,12.77
2022-10-31T13:01:14.500Z,12.87
2022-10-31T13:04:03.707Z,12.53
2022-10-31T13:06:44.542Z,10.80
2022-10-31T13:09:20.269Z,12.93
2022-10-31T13:11:49.634Z,12.30
2022-10-31T13:14:40.732Z,11.40
2022-10-31T13:17:07.797Z,11.93
2022-10-31T13:19:41.193Z,11.33
2022-10-31T13:22:25.777Z,10.90
2022-10-31T13:25:10.161Z,12.27
2022-10-31T13:28:00.323Z,10.73
2022-10-31T13:30:30.484Z,10.97
2022-10-31T13:33:16.070Z,10.80
2022-10-31T13:36:04.215Z,9.60
2022-10-31T13:38:42.929Z,10.53
2022-10-31T13:41:21.985Z,11.57
2022-10-31T13:43:55.013Z,11.00
2022-10-31T13:46:32.466Z,10.10
2022-10-31T13:48:59.338Z,9.60
2022-10-31T13:51:31.685Z,10.00
2022-10-31T13:54:32.251Z,10.70
2022-10-31T13:56:59.506Z,10.13
2022-10-31T13:59:33.108Z,11.23
2022-10-31T14:02:17.676Z,11.10
2022-10-31T14:04:56.324Z,10.40
2022-10-31T14:07:24.812Z,11.23
2022-10-31T14:10:05.635Z,10.53
2022-10-31T14:12:32.618Z,10.67
2022-10-31T14:15:14.311Z,10.13
2022-10-31T14:17:50.175Z,13.27
2022-10-31T14:20:16.726Z,10.90
2022-10-31T14:22:44.642Z,10.93
2022-10-31T14:25:37.460Z,10.07
2022-10-31T14:28:22.832Z,10.53
2022-10-31T14:30:54.558Z,10.60
2022-10-31T14:33:22.929Z,11.40
2022-10-31T14:36:08.470Z,9.63
2022-10-31T14:38:44.757Z,10.63
2022-10-31T14:41:43.258Z,10.20
2022-10-31T14:44:54.457Z,8.80
2022-10-31T14:47:46.465Z,8.83
2022-10-31T14:50:27.708Z,9.10
2022-10-31T14:52:58.284Z,8.57
2022-10-31T14:55:26.962Z,8.80
2022-10-31T14:58:00.045Z,8.40
2022-10-31T15:00:30.345Z,7.73
2022-10-31T15:03:24.480Z,7.97
2022-10-31T15:05:57.006Z,7.90
2022-10-31T15:08:28.749Z,8.13
2022-10-31T15:10:55.511Z,7.70
2022-10-31T15:13:22.889Z,8.20
2022-10-31T15:15:52.527Z,6.90
2022-10-31T15:18:23.427Z,7.73
2022-10-31T15:20:51.563Z,7.27
2022-10-31T15:23:32.417Z,7.40
2022-10-31T15:26:04.292Z,7.03
2022-10-31T15:28:32.093Z,7.10
2022-10-31T15:31:01.220Z,6.50
2022-10-31T15:33:38.266Z,7.13
2022-10-31T15:36:06.125Z,7.63
2022-10-31T15:38:33.711Z,7.20
2022-10-31T15:41:20.152Z,7.43
2022-10-31T15:43:47.589Z,6.87
2022-10-31T15:46:14.210Z,7.70
2022-10-31T15:48:46.294Z,6.77
2022-10-31T15:51:13.502Z,7.30
2022-10-31T15:53:47.854Z,7.10
2022-10-31T15:56:22.294Z,7.17
2022-10-31T15:58:51.337Z,6.77
2022-10-31T16:01:25.412Z,7.17
2022-10-31T16:04:20.212Z,7.50
2022-10-31T16:07:17.474Z,7.90
2022-10-31T16:10:01.693Z,6.20
2022-10-31T16:12:36.250Z,6.57
2022-10-31T16:15:05.270Z,10.73
2022-10-31T16:17:32.655Z,12.53
2022-10-31T16:20:02.099Z,11.50
2022-10-31T16:22:31.983Z,11.37
2022-10-31T16:25:06.794Z,9.10
2022-10-31T16:27:35.476Z,9.00
2022-10-31T16:30:05.298Z,8.70
2022-10-31T16:32:54.567Z,8.30
2022-10-31T16:35:32.813Z,8.87
2022-10-31T16:37:59.388Z,8.60
2022-10-31T16:40:26.367Z,8.73
2022-10-31T16:42:53.488Z,8.00
2022-10-31T16:45:23.395Z,7.63
2022-10-31T16:47:50.731Z,6.70
2022-10-31T16:50:27.623Z,8.33
2022-10-31T16:53:12.880Z,8.37
2022-10-31T16:55:57.507Z,10.27
2022-10-31T16:58:30.465Z,8.90
2022-10-31T17:00:57.991Z,9.80
2022-10-31T17:03:24.700Z,58.73
2022-10-31T17:05:51.404Z,57.73
2022-10-31T17:08:17.948Z,66.40
2022-10-31T17:10:45.902Z,88.63
2022-10-31T17:13:23.588Z,77.20
2022-10-31T17:16:02.261Z,64.37
2022-10-31T17:18:28.899Z,91.13
2022-10-31T17:20:59.371Z,63.27
2022-10-31T17:23:26.494Z,78.57
2022-10-31T17:25:53.035Z,68.10
2022-10-31T17:28:19.647Z,59.00
2022-10-31T17:30:46.269Z,56.20
2022-10-31T17:33:15.112Z,61.87
2022-10-31T17:35:42.409Z,38.77
2022-10-31T17:38:08.999Z,53.40
2022-10-31T17:40:38.306Z,56.60
2022-10-31T17:43:05.580Z,55.37
2022-10-31T17:45:32.271Z,53.10
2022-10-31T17:47:58.984Z,48.33
2022-10-31T17:50:26.942Z,42.13
2022-10-31T17:52:54.305Z,47.60
2022-10-31T17:55:21.006Z,42.73
2022-10-31T17:57:49.568Z,39.23
2022-10-31T18:00:19.376Z,35.37
2022-10-31T18:02:45.956Z,34.00
2022-10-31T18:05:13.331Z,31.00
2022-10-31T18:07:40.088Z,30.60
2022-10-31T18:10:07.476Z,26.33
2022-10-31T18:12:35.918Z,28.93
2022-10-31T18:15:02.988Z,28.67
2022-10-31T18:17:29.944Z,28.13
2022-10-31T18:19:56.933Z,26.40
2022-10-31T18:22:23.994Z,19.17
2022-10-31T18:24:51.055Z,16.40
2022-10-31T18:27:18.042Z,17.07
2022-10-31T18:29:45.384Z,22.70
2022-10-31T18:32:12.342Z,23.20
2022-10-31T18:34:39.295Z,21.33
2022-10-31T18:37:06.271Z,22.60
2022-10-31T18:39:33.328Z,22.60
2022-10-31T18:41:59.974Z,20.50
2022-10-31T18:44:27.783Z,20.20
2022-10-31T18:46:55.135Z,20.93
2022-10-31T18:49:23.795Z,21.23
2022-10-31T18:51:50.975Z,20.40
2022-10-31T18:54:17.869Z,21.70
2022-10-31T18:56:45.414Z,22.13
2022-10-31T18:59:12.472Z,20.03
2022-10-31T19:01:39.791Z,20.00
2022-10-31T19:04:07.230Z,19.63
2022-10-31T19:06:33.992Z,18.93
2022-10-31T19:09:03.836Z,19.77
2022-10-31T19:11:33.588Z,19.90
2022-10-31T19:14:00.357Z,19.50
2022-10-31T19:16:27.317Z,19.27
2022-10-31T19:18:59.879Z,18.17
2022-10-31T19:21:27.129Z,19.67
2022-10-31T19:23:56.150Z,17.80
2022-10-31T19:26:23.182Z,18.50
2022-10-31T19:28:50.183Z,19.10
2022-10-31T19:31:18.829Z,17.57
2022-10-31T19:33:46.350Z,17.97
2022-10-31T19:36:15.299Z,17.60
2022-10-31T19:38:44.516Z,19.03
2022-10-31T19:41:19.329Z,17.80
2022-10-31T19:43:46.279Z,18.60
2022-10-31T19:46:22.340Z,18.00
2022-10-31T19:48:54.589Z,18.10
2022-10-31T19:51:21.698Z,18.60
2022-10-31T19:53:52.152Z,18.33
2022-10-31T19:56:24.924Z,17.53
2022-10-31T19:58:51.996Z,10.60
2022-10-31T20:01:19.950Z,9.07
2022-10-31T20:03:47.189Z,10.50
2022-10-31T20:06:27.816Z,11.70
2022-10-31T20:08:58.629Z,13.43
2022-10-31T20:11:27.168Z,14.07
2022-10-31T20:13:58.328Z,13.90
2022-10-31T20:16:25.799Z,14.50
2022-10-31T20:18:53.125Z,12.80
2022-10-31T20:21:22.952Z,13.40
2022-10-31T20:23:49.871Z,13.73
2022-10-31T20:26:19.059Z,12.53
2022-10-31T20:28:46.580Z,12.53
2022-10-31T20:31:19.928Z,12.93
2022-10-31T20:33:47.491Z,14.03
2022-10-31T20:36:15.153Z,14.87
2022-10-31T20:38:42.360Z,13.47
2022-10-31T20:41:11.176Z,12.60
2022-10-31T20:43:38.728Z,13.13
2022-10-31T20:46:12.468Z,13.90
2022-10-31T20:48:39.267Z,12.60
2022-10-31T20:51:10.237Z,13.37
2022-10-31T20:53:37.257Z,12.07
2022-10-31T20:56:09.740Z,12.70
2022-10-31T20:58:37.476Z,12.67
2022-10-31T21:01:05.896Z,13.20
2022-10-31T21:03:32.672Z,11.83
2022-10-31T21:06:01.273Z,11.90
2022-10-31T21:08:29.669Z,11.67
2022-10-31T21:10:56.831Z,13.30
2022-10-31T21:13:24.264Z,11.97
2022-10-31T21:16:06.071Z,10.93
2022-10-31T21:18:35.775Z,12.10
2022-10-31T21:21:08.174Z,11.67
2022-10-31T21:23:35.304Z,11.53
2022-10-31T21:26:09.425Z,11.87
2022-10-31T21:28:36.133Z,11.27
2022-10-31T21:31:09.879Z,11.10
2022-10-31T21:33:37.029Z,11.00
2022-10-31T21:36:04.868Z,11.50
2022-10-31T21:38:31.986Z,10.00
2022-10-31T21:41:03.139Z,10.70
2022-10-31T21:43:30.574Z,10.00
2022-10-31T21:46:06.357Z,10.90
2022-10-31T21:48:33.143Z,10.17
2022-10-31T21:51:08.899Z,10.87
2022-10-31T21:53:54.587Z,10.10
2022-10-31T21:56:21.885Z,10.00
2022-10-31T21:58:48.887Z,10.10
2022-10-31T22:01:15.585Z,9.90
2022-10-31T22:03:43.124Z,9.57
2022-10-31T22:06:11.199Z,10.33
2022-10-31T22:08:38.276Z,9.47
2022-10-31T22:11:07.531Z,9.50
2022-10-31T22:13:35.228Z,11.67
2022-10-31T22:16:07.800Z,9.13
2022-10-31T22:18:35.107Z,9.10
2022-10-31T22:21:03.336Z,9.03
2022-10-31T22:23:30.907Z,9.90
2022-10-31T22:26:05.864Z,8.90
2022-10-31T22:28:33.277Z,8.90
2022-10-31T22:31:07.118Z,8.83
2022-10-31T22:33:34.029Z,7.13
2022-10-31T22:36:05.518Z,7.23
2022-10-31T22:38:39.726Z,7.37
2022-10-31T22:41:14.356Z,7.33
2022-10-31T22:43:41.488Z,7.30
2022-10-31T22:46:13.586Z,7.50
2022-10-31T22:48:45.900Z,8.60
2022-10-31T22:51:17.900Z,7.67
2022-10-31T22:53:44.689Z,7.67
2022-10-31T22:56:14.540Z,7.67
2022-10-31T22:58:41.423Z,6.90
2022-10-31T23:01:12.845Z,7.53
2022-10-31T23:03:39.693Z,7.77
2022-10-31T23:06:07.476Z,7.40
2022-10-31T23:08:36.752Z,7.53
2022-10-31T23:11:19.797Z,6.83
2022-10-31T23:14:07.052Z,7.40
2022-10-31T23:16:34.296Z,7.33
2022-10-31T23:19:07.538Z,6.97
2022-10-31T23:21:55.060Z,6.57
2022-10-31T23:24:37.717Z,6.80
2022-10-31T23:27:11.732Z,6.80
2022-10-31T23:29:46.016Z,6.93
2022-10-31T23:32:18.448Z,7.50
2022-10-31T23:34:46.631Z,7.03
2022-10-31T23:37:13.982Z,6.10
2022-10-31T23:39:41.012Z,6.70
2022-10-31T23:42:08.206Z,6.37
2022-10-31T23:44:34.773Z,6.03
2022-10-31T23:47:01.655Z,5.80
2022-10-31T23:49:29.301Z,6.50
2022-10-31T23:51:58.817Z,6.90
2022-10-31T23:54:26.770Z,6.10
2022-10-31T23:56:54.237Z,6.00
2022-10-31T23:59:22.736Z,6.47
